sensor_id;sensor_type;location;lat;lon;timestamp;pressure;altitude;pressure_sealevel;temperature;humidity
51243;BME280;37812;47.556;18.718;2022-09-09T00:00:41;99524.59;;;16.22;100.00
51243;BME280;37812;47.556;18.718;2022-09-09T00:03:37;99523.81;;;16.28;100.00
51243;BME280;37812;47.556;18.718;2022-09-09T00:06:17;99524.69;;;16.28;100.00
51243;BME280;37812;47.556;18.718;2022-09-09T00:09:18;99510.81;;;16.37;100.00
51243;BME280;37812;47.556;18.718;2022-09-09T00:14:54;99509.00;;;16.28;100.00
51243;BME280;37812;47.556;18.718;2022-09-09T00:20:41;99507.25;;;16.27;100.00
51243;BME280;37812;47.556;18.718;2022-09-09T00:23:20;99497.69;;;16.29;100.00
51243;BME280;37812;47.556;18.718;2022-09-09T00:26:04;99496.78;;;16.24;100.00
51243;BME280;37812;47.556;18.718;2022-09-09T00:28:39;99499.34;;;16.20;100.00
51243;BME280;37812;47.556;18.718;2022-09-09T00:31:16;99500.25;;;16.23;100.00
51243;BME280;37812;47.556;18.718;2022-09-09T00:33:44;99502.94;;;16.31;100.00
51243;BME280;37812;47.556;18.718;2022-09-09T00:36:18;99506.47;;;16.34;100.00
51243;BME280;37812;47.556;18.718;2022-09-09T00:38:49;99516.00;;;16.32;100.00
51243;BME280;37812;47.556;18.718;2022-09-09T00:53:10;99521.19;;;16.26;100.00
51243;BME280;37812;47.556;18.718;2022-09-09T00:55:19;99521.19;;;16.29;100.00
51243;BME280;37812;47.556;18.718;2022-09-09T00:57:51;99527.28;;;16.30;100.00
51243;BME280;37812;47.556;18.718;2022-09-09T01:02:55;99523.66;;;16.17;100.00
51243;BME280;37812;47.556;18.718;2022-09-09T01:05:34;99518.50;;;16.20;100.00
51243;BME280;37812;47.556;18.718;2022-09-09T01:10:53;99526.28;;;16.17;100.00
51243;BME280;37812;47.556;18.718;2022-09-09T01:13:28;99524.53;;;16.16;100.00
51243;BME280;37812;47.556;18.718;2022-09-09T01:16:01;99534.91;;;16.10;100.00
51243;BME280;37812;47.556;18.718;2022-09-09T01:18:39;99533.16;;;16.09;100.00
51243;BME280;37812;47.556;18.718;2022-09-09T01:26:46;99535.75;;;16.06;100.00
51243;BME280;37812;47.556;18.718;2022-09-09T01:29:15;99540.03;;;16.01;100.00
51243;BME280;37812;47.556;18.718;2022-09-09T01:31:55;99540.03;;;16.02;100.00
51243;BME280;37812;47.556;18.718;2022-09-09T01:34:23;99538.38;;;16.09;100.00
51243;BME280;37812;47.556;18.718;2022-09-09T01:37:03;99536.59;;;16.05;100.00
51243;BME280;37812;47.556;18.718;2022-09-09T01:39:33;99536.53;;;15.99;100.00
51243;BME280;37812;47.556;18.718;2022-09-09T01:42:01;99540.94;;;16.03;100.00
51243;BME280;37812;47.556;18.718;2022-09-09T01:44:27;99541.84;;;16.08;100.00
51243;BME280;37812;47.556;18.718;2022-09-09T01:46:54;99530.53;;;16.06;100.00
51243;BME280;37812;47.556;18.718;2022-09-09T01:49:20;99527.91;;;16.06;100.00
51243;BME280;37812;47.556;18.718;2022-09-09T01:51:50;99542.69;;;16.05;100.00
51243;BME280;37812;47.556;18.718;2022-09-09T01:54:19;99547.03;;;16.05;100.00
51243;BME280;37812;47.556;18.718;2022-09-09T01:57:07;99549.59;;;16.02;100.00
51243;BME280;37812;47.556;18.718;2022-09-09T02:00:09;99546.16;;;16.03;100.00
51243;BME280;37812;47.556;18.718;2022-09-09T02:07:49;99550.47;;;16.01;100.00
51243;BME280;37812;47.556;18.718;2022-09-09T02:10:28;99562.69;;;16.05;100.00
51243;BME280;37812;47.556;18.718;2022-09-09T02:13:04;99561.06;;;16.13;100.00
51243;BME280;37812;47.556;18.718;2022-09-09T02:15:44;99561.94;;;16.15;100.00
51243;BME280;37812;47.556;18.718;2022-09-09T02:18:15;99564.59;;;16.18;100.00
51243;BME280;37812;47.556;18.718;2022-09-09T02:20:43;99556.72;;;16.15;100.00
51243;BME280;37812;47.556;18.718;2022-09-09T02:23:11;99557.59;;;16.17;100.00
51243;BME280;37812;47.556;18.718;2022-09-09T02:25:39;99557.59;;;16.14;100.00
51243;BME280;37812;47.556;18.718;2022-09-09T02:28:08;99560.16;;;16.11;100.00
51243;BME280;37812;47.556;18.718;2022-09-09T02:30:37;99563.66;;;16.13;100.00
51243;BME280;37812;47.556;18.718;2022-09-09T02:33:06;99561.06;;;16.13;100.00
51243;BME280;37812;47.556;18.718;2022-09-09T02:35:37;99551.47;;;16.12;100.00
51243;BME280;37812;47.556;18.718;2022-09-09T02:38:06;99548.78;;;16.06;100.00
51243;BME280;37812;47.556;18.718;2022-09-09T02:40:33;99553.13;;;16.04;100.00
51243;BME280;37812;47.556;18.718;2022-09-09T02:42:59;99558.28;;;15.99;100.00
51243;BME280;37812;47.556;18.718;2022-09-09T02:45:36;99557.38;;;15.96;100.00
51243;BME280;37812;47.556;18.718;2022-09-09T02:51:08;99561.72;;;15.95;100.00
51243;BME280;37812;47.556;18.718;2022-09-09T02:53:50;99562.53;;;15.93;100.00
51243;BME280;37812;47.556;18.718;2022-09-09T02:56:25;99562.59;;;15.96;100.00
51243;BME280;37812;47.556;18.718;2022-09-09T02:58:52;99562.59;;;15.96;100.00
51243;BME280;37812;47.556;18.718;2022-09-09T03:01:18;99564.34;;;15.97;100.00
51243;BME280;37812;47.556;18.718;2022-09-09T03:03:44;99561.72;;;15.97;100.00
51243;BME280;37812;47.556;18.718;2022-09-09T03:06:12;99562.62;;;15.99;100.00
51243;BME280;37812;47.556;18.718;2022-09-09T03:08:38;99571.19;;;15.89;100.00
51243;BME280;37812;47.556;18.718;2022-09-09T03:11:04;99578.00;;;15.77;100.00
51243;BME280;37812;47.556;18.718;2022-09-09T03:13:30;99577.53;;;15.47;100.00
51243;BME280;37812;47.556;18.718;2022-09-09T03:15:56;99590.25;;;15.25;100.00
51243;BME280;37812;47.556;18.718;2022-09-09T03:18:22;99600.47;;;15.12;100.00
51243;BME280;37812;47.556;18.718;2022-09-09T03:20:48;99587.22;;;14.98;100.00
51243;BME280;37812;47.556;18.718;2022-09-09T03:23:14;99597.50;;;14.89;100.00
51243;BME280;37812;47.556;18.718;2022-09-09T03:25:46;99597.53;;;14.92;100.00
51243;BME280;37812;47.556;18.718;2022-09-09T03:28:12;99580.19;;;14.94;100.00
51243;BME280;37812;47.556;18.718;2022-09-09T03:30:38;99589.94;;;15.04;100.00
51243;BME280;37812;47.556;18.718;2022-09-09T03:33:04;99590.81;;;15.06;100.00
51243;BME280;37812;47.556;18.718;2022-09-09T03:35:30;99585.50;;;15.00;100.00
51243;BME280;37812;47.556;18.718;2022-09-09T03:37:56;99591.56;;;14.99;100.00
51243;BME280;37812;47.556;18.718;2022-09-09T03:40:22;99593.22;;;14.94;100.00
51243;BME280;37812;47.556;18.718;2022-09-09T03:42:48;99593.31;;;14.98;100.00
51243;BME280;37812;47.556;18.718;2022-09-09T03:45:14;99588.00;;;14.94;100.00
51243;BME280;37812;47.556;18.718;2022-09-09T03:47:40;99595.75;;;14.88;100.00
51243;BME280;37812;47.556;18.718;2022-09-09T03:50:07;99591.94;;;14.70;100.00
51243;BME280;37812;47.556;18.718;2022-09-09T03:52:37;99592.66;;;14.62;100.00
51243;BME280;37812;47.556;18.718;2022-09-09T03:55:05;99596.94;;;14.58;100.00
51243;BME280;37812;47.556;18.718;2022-09-09T03:57:31;99603.75;;;14.50;100.00
51243;BME280;37812;47.556;18.718;2022-09-09T04:00:01;99612.37;;;14.49;100.00
51243;BME280;37812;47.556;18.718;2022-09-09T04:02:27;99618.94;;;14.32;100.00
51243;BME280;37812;47.556;18.718;2022-09-09T04:04:53;99612.13;;;14.37;100.00
51243;BME280;37812;47.556;18.718;2022-09-09T04:07:18;99612.25;;;14.43;100.00
51243;BME280;37812;47.556;18.718;2022-09-09T04:09:44;99614.16;;;14.50;100.00
51243;BME280;37812;47.556;18.718;2022-09-09T04:12:10;99615.91;;;14.51;100.00
51243;BME280;37812;47.556;18.718;2022-09-09T04:14:38;99612.37;;;14.49;100.00
51243;BME280;37812;47.556;18.718;2022-09-09T04:17:04;99609.00;;;14.53;100.00
51243;BME280;37812;47.556;18.718;2022-09-09T04:19:32;99609.16;;;14.62;100.00
51243;BME280;37812;47.556;18.718;2022-09-09T04:21:58;99616.94;;;14.61;100.00
51243;BME280;37812;47.556;18.718;2022-09-09T04:24:24;99608.41;;;14.69;100.00
51243;BME280;37812;47.556;18.718;2022-09-09T04:26:53;99611.16;;;14.76;100.00
51243;BME280;37812;47.556;18.718;2022-09-09T04:29:18;99606.06;;;14.83;100.00
51243;BME280;37812;47.556;18.718;2022-09-09T04:31:44;99602.78;;;14.95;100.00
51243;BME280;37812;47.556;18.718;2022-09-09T04:34:10;99601.12;;;15.00;100.00
51243;BME280;37812;47.556;18.718;2022-09-09T04:36:36;99594.22;;;15.02;100.00
51243;BME280;37812;47.556;18.718;2022-09-09T04:39:02;99594.31;;;15.07;100.00
51243;BME280;37812;47.556;18.718;2022-09-09T04:41:28;99594.38;;;15.11;100.00
51243;BME280;37812;47.556;18.718;2022-09-09T04:43:57;99586.56;;;15.11;100.00
51243;BME280;37812;47.556;18.718;2022-09-09T04:46:23;99584.09;;;15.20;100.00
51243;BME280;37812;47.556;18.718;2022-09-09T04:48:49;99584.13;;;15.23;100.00
51243;BME280;37812;47.556;18.718;2022-09-09T04:51:15;99583.34;;;15.27;100.00
51243;BME280;37812;47.556;18.718;2022-09-09T04:53:41;99586.06;;;15.34;100.00
51243;BME280;37812;47.556;18.718;2022-09-09T04:56:13;99586.09;;;15.37;100.00
51243;BME280;37812;47.556;18.718;2022-09-09T04:58:40;99587.88;;;15.41;100.00
51243;BME280;37812;47.556;18.718;2022-09-09T05:01:09;99591.50;;;15.49;100.00
51243;BME280;37812;47.556;18.718;2022-09-09T05:03:35;99594.31;;;15.61;100.00
51243;BME280;37812;47.556;18.718;2022-09-09T05:06:03;99588.31;;;15.68;100.00
51243;BME280;37812;47.556;18.718;2022-09-09T05:08:29;99591.03;;;15.76;100.00
51243;BME280;37812;47.556;18.718;2022-09-09T05:10:55;99598.09;;;15.84;100.00
51243;BME280;37812;47.556;18.718;2022-09-09T05:13:21;99590.34;;;15.91;100.00
51243;BME280;37812;47.556;18.718;2022-09-09T05:15:52;99586.03;;;15.93;100.00
51243;BME280;37812;47.556;18.718;2022-09-09T05:18:19;99585.31;;;16.03;100.00
51243;BME280;37812;47.556;18.718;2022-09-09T05:20:44;99591.44;;;16.08;100.00
51243;BME280;37812;47.556;18.718;2022-09-09T05:23:10;99579.41;;;16.21;100.00
51243;BME280;37812;47.556;18.718;2022-09-09T05:25:40;99575.22;;;16.33;100.00
51243;BME280;37812;47.556;18.718;2022-09-09T05:28:08;99570.00;;;16.33;100.00
51243;BME280;37812;47.556;18.718;2022-09-09T05:30:34;99577.88;;;16.39;100.00
51243;BME280;37812;47.556;18.718;2022-09-09T05:33:00;99571.00;;;16.48;100.00
51243;BME280;37812;47.556;18.718;2022-09-09T05:35:26;99574.50;;;16.50;100.00
51243;BME280;37812;47.556;18.718;2022-09-09T05:37:52;99574.53;;;16.53;100.00
51243;BME280;37812;47.556;18.718;2022-09-09T05:40:18;99570.25;;;16.58;100.00
51243;BME280;37812;47.556;18.718;2022-09-09T05:42:44;99565.03;;;16.58;100.00
51243;BME280;37812;47.556;18.718;2022-09-09T05:45:10;99561.66;;;16.71;100.00
51243;BME280;37812;47.556;18.718;2022-09-09T05:47:36;99567.88;;;16.82;100.00
51243;BME280;37812;47.556;18.718;2022-09-09T05:50:03;99572.25;;;16.83;100.00
51243;BME280;37812;47.556;18.718;2022-09-09T05:52:29;99570.62;;;17.01;100.00
51243;BME280;37812;47.556;18.718;2022-09-09T05:54:55;99570.66;;;17.02;100.00
51243;BME280;37812;47.556;18.718;2022-09-09T05:57:22;99565.47;;;17.10;100.00
51243;BME280;37812;47.556;18.718;2022-09-09T05:59:48;99572.50;;;17.11;100.00
51243;BME280;37812;47.556;18.718;2022-09-09T06:02:15;99565.59;;;17.25;100.00
51243;BME280;37812;47.556;18.718;2022-09-09T06:04:41;99567.47;;;17.41;100.00
51243;BME280;37812;47.556;18.718;2022-09-09T06:07:07;99569.28;;;17.48;100.00
51243;BME280;37812;47.556;18.718;2022-09-09T06:09:33;99573.63;;;17.56;100.00
51243;BME280;37812;47.556;18.718;2022-09-09T06:11:59;99569.31;;;17.58;100.00
51243;BME280;37812;47.556;18.718;2022-09-09T06:14:25;99571.03;;;17.56;100.00
51243;BME280;37812;47.556;18.718;2022-09-09T06:16:52;99571.97;;;17.70;100.00
51243;BME280;37812;47.556;18.718;2022-09-09T06:19:18;99571.22;;;17.80;100.00
51243;BME280;37812;47.556;18.718;2022-09-09T06:21:45;99583.44;;;17.81;100.00
51243;BME280;37812;47.556;18.718;2022-09-09T06:24:11;99579.19;;;18.14;100.00
51243;BME280;37812;47.556;18.718;2022-09-09T06:26:39;99587.09;;;18.20;100.00
51243;BME280;37812;47.556;18.718;2022-09-09T06:29:07;99594.06;;;18.21;100.00
51243;BME280;37812;47.556;18.718;2022-09-09T06:31:34;99588.87;;;18.33;100.00
51243;BME280;37812;47.556;18.718;2022-09-09T06:34:05;99588.97;;;18.70;100.00
51243;BME280;37812;47.556;18.718;2022-09-09T06:36:33;99583.78;;;18.79;100.00
51243;BME280;37812;47.556;18.718;2022-09-09T06:39:00;99580.25;;;19.23;100.00
51243;BME280;37812;47.556;18.718;2022-09-09T06:41:29;99589.03;;;19.12;100.00
51243;BME280;37812;47.556;18.718;2022-09-09T06:43:55;99590.75;;;19.35;100.00
51243;BME280;37812;47.556;18.718;2022-09-09T06:46:23;99597.72;;;19.69;98.65
51243;BME280;37812;47.556;18.718;2022-09-09T06:48:54;99602.97;;;19.69;98.73
51243;BME280;37812;47.556;18.718;2022-09-09T06:51:23;99608.16;;;19.91;94.39
51243;BME280;37812;47.556;18.718;2022-09-09T06:53:54;99609.81;;;20.19;94.35
51243;BME280;37812;47.556;18.718;2022-09-09T06:58:47;99608.94;;;20.20;95.86
51243;BME280;37812;47.556;18.718;2022-09-09T07:01:16;99602.09;;;19.74;93.58
51243;BME280;37812;47.556;18.718;2022-09-09T07:03:46;99618.66;;;19.91;96.21
51243;BME280;37812;47.556;18.718;2022-09-09T07:08:44;99609.22;;;25.43;67.94
51243;BME280;37812;47.556;18.718;2022-09-09T07:11:13;99602.69;;;27.60;58.86
51243;BME280;37812;47.556;18.718;2022-09-09T07:13:39;99619.41;;;26.23;60.51
51243;BME280;37812;47.556;18.718;2022-09-09T07:16:07;99620.87;;;25.36;63.43
51243;BME280;37812;47.556;18.718;2022-09-09T07:18:33;99627.50;;;25.88;61.32
51243;BME280;37812;47.556;18.718;2022-09-09T07:21:01;99618.97;;;27.51;56.86
51243;BME280;37812;47.556;18.718;2022-09-09T07:23:28;99616.16;;;29.83;49.17
51243;BME280;37812;47.556;18.718;2022-09-09T07:25:54;99604.22;;;31.07;45.33
51243;BME280;37812;47.556;18.718;2022-09-09T07:28:21;99600.62;;;30.51;45.64
51243;BME280;37812;47.556;18.718;2022-09-09T07:30:58;99612.72;;;30.21;46.14
51243;BME280;37812;47.556;18.718;2022-09-09T07:33:25;99611.28;;;31.78;43.55
51243;BME280;37812;47.556;18.718;2022-09-09T07:35:52;99608.78;;;30.48;45.46
51243;BME280;37812;47.556;18.718;2022-09-09T07:38:21;99612.66;;;31.51;42.10
51243;BME280;37812;47.556;18.718;2022-09-09T07:40:48;99611.97;;;31.82;41.31
51243;BME280;37812;47.556;18.718;2022-09-09T07:43:14;99612.94;;;31.98;40.16
51243;BME280;37812;47.556;18.718;2022-09-09T07:45:43;99612.75;;;32.01;41.50
51243;BME280;37812;47.556;18.718;2022-09-09T07:48:08;99607.53;;;32.96;38.91
51243;BME280;37812;47.556;18.718;2022-09-09T07:50:34;99601.97;;;31.51;41.57
51243;BME280;37812;47.556;18.718;2022-09-09T07:53:00;99605.91;;;31.44;40.40
51243;BME280;37812;47.556;18.718;2022-09-09T07:55:28;99611.59;;;31.38;40.18
51243;BME280;37812;47.556;18.718;2022-09-09T07:57:55;99612.06;;;31.63;40.43
51243;BME280;37812;47.556;18.718;2022-09-09T08:00:21;99614.91;;;31.77;39.27
51243;BME280;37812;47.556;18.718;2022-09-09T08:02:48;99617.81;;;31.90;41.32
51243;BME280;37812;47.556;18.718;2022-09-09T08:05:14;99614.69;;;32.15;40.12
51243;BME280;37812;47.556;18.718;2022-09-09T08:07:40;99613.97;;;32.12;39.24
51243;BME280;37812;47.556;18.718;2022-09-09T08:10:06;99614.00;;;32.45;38.46
51243;BME280;37812;47.556;18.718;2022-09-09T08:12:32;99603.72;;;32.84;37.51
51243;BME280;37812;47.556;18.718;2022-09-09T08:14:58;99608.56;;;31.26;41.31
51243;BME280;37812;47.556;18.718;2022-09-09T08:17:24;99599.47;;;32.80;38.24
51243;BME280;37812;47.556;18.718;2022-09-09T08:19:50;99599.66;;;32.77;38.14
51243;BME280;37812;47.556;18.718;2022-09-09T08:22:16;99603.94;;;32.32;37.93
51243;BME280;37812;47.556;18.718;2022-09-09T08:24:42;99601.28;;;32.64;37.85
51243;BME280;37812;47.556;18.718;2022-09-09T08:27:08;99600.97;;;33.02;34.29
51243;BME280;37812;47.556;18.718;2022-09-09T08:29:35;99589.72;;;32.63;35.87
51243;BME280;37812;47.556;18.718;2022-09-09T08:32:03;99596.50;;;31.54;39.47
51243;BME280;37812;47.556;18.718;2022-09-09T08:34:30;99595.38;;;31.41;39.91
51243;BME280;37812;47.556;18.718;2022-09-09T08:36:56;99593.16;;;32.34;37.42
51243;BME280;37812;47.556;18.718;2022-09-09T08:39:22;99599.31;;;31.34;38.72
51243;BME280;37812;47.556;18.718;2022-09-09T08:50:49;99616.78;;;31.75;37.75
51243;BME280;37812;47.556;18.718;2022-09-09T08:53:26;99625.94;;;33.18;35.09
51243;BME280;37812;47.556;18.718;2022-09-09T08:56:17;99616.19;;;32.85;34.65
51243;BME280;37812;47.556;18.718;2022-09-09T08:58:49;99621.34;;;31.91;36.69
51243;BME280;37812;47.556;18.718;2022-09-09T09:01:29;99618.00;;;33.77;32.83
51243;BME280;37812;47.556;18.718;2022-09-09T09:07:21;99610.75;;;32.22;34.69
51243;BME280;37812;47.556;18.718;2022-09-09T09:12:44;99604.13;;;31.08;37.58
51243;BME280;37812;47.556;18.718;2022-09-09T09:15:25;99616.31;;;31.85;37.50
51243;BME280;37812;47.556;18.718;2022-09-09T09:17:51;99611.16;;;33.11;34.12
51243;BME280;37812;47.556;18.718;2022-09-09T09:20:23;99612.09;;;33.56;32.07
51243;BME280;37812;47.556;18.718;2022-09-09T09:22:55;99607.78;;;34.12;30.75
51243;BME280;37812;47.556;18.718;2022-09-09T09:25:34;99594.47;;;33.52;31.80
51243;BME280;37812;47.556;18.718;2022-09-09T09:28:03;99588.66;;;32.34;33.68
51243;BME280;37812;47.556;18.718;2022-09-09T09:30:45;99586.94;;;32.33;34.28
51243;BME280;37812;47.556;18.718;2022-09-09T09:33:20;99588.63;;;31.68;34.62
51243;BME280;37812;47.556;18.718;2022-09-09T09:35:49;99578.00;;;31.84;34.61
51243;BME280;37812;47.556;18.718;2022-09-09T09:38:21;99578.38;;;31.94;33.40
51243;BME280;37812;47.556;18.718;2022-09-09T09:40:55;99579.63;;;32.20;33.78
51243;BME280;37812;47.556;18.718;2022-09-09T09:43:26;99582.63;;;32.78;31.17
51243;BME280;37812;47.556;18.718;2022-09-09T09:45:53;99587.41;;;31.74;32.87
51243;BME280;37812;47.556;18.718;2022-09-09T09:48:19;99587.34;;;31.23;33.21
51243;BME280;37812;47.556;18.718;2022-09-09T09:50:59;99603.94;;;31.65;33.64
51243;BME280;37812;47.556;18.718;2022-09-09T09:53:31;99589.87;;;31.61;32.24
51243;BME280;37812;47.556;18.718;2022-09-09T09:56:01;99591.91;;;31.91;33.58
51243;BME280;37812;47.556;18.718;2022-09-09T09:58:31;99590.97;;;31.57;32.28
51243;BME280;37812;47.556;18.718;2022-09-09T10:01:00;99584.91;;;31.36;31.88
51243;BME280;37812;47.556;18.718;2022-09-09T10:03:35;99582.66;;;31.46;31.07
51243;BME280;37812;47.556;18.718;2022-09-09T10:06:06;99582.34;;;31.52;33.48
51243;BME280;37812;47.556;18.718;2022-09-09T10:08:34;99584.84;;;31.38;31.12
51243;BME280;37812;47.556;18.718;2022-09-09T10:14:22;99588.06;;;31.79;30.16
51243;BME280;37812;47.556;18.718;2022-09-09T10:17:13;99579.63;;;31.35;33.51
51243;BME280;37812;47.556;18.718;2022-09-09T10:22:33;99576.31;;;30.76;32.07
51243;BME280;37812;47.556;18.718;2022-09-09T10:33:10;99603.09;;;29.15;34.45
51243;BME280;37812;47.556;18.718;2022-09-09T10:38:47;99601.88;;;28.78;34.73
51243;BME280;37812;47.556;18.718;2022-09-09T10:41:15;99589.72;;;28.94;34.27
51243;BME280;37812;47.556;18.718;2022-09-09T10:52:13;99582.72;;;27.23;39.39
51243;BME280;37812;47.556;18.718;2022-09-09T10:55:02;99585.53;;;27.19;37.19
51243;BME280;37812;47.556;18.718;2022-09-09T10:57:41;99593.94;;;27.05;37.94
51243;BME280;37812;47.556;18.718;2022-09-09T11:02:58;99587.84;;;27.01;39.81
51243;BME280;37812;47.556;18.718;2022-09-09T11:05:51;99581.06;;;27.19;40.33
51243;BME280;37812;47.556;18.718;2022-09-09T11:08:21;99581.37;;;27.10;39.03
51243;BME280;37812;47.556;18.718;2022-09-09T11:10:53;99585.44;;;26.66;40.41
51243;BME280;37812;47.556;18.718;2022-09-09T11:16:20;99589.16;;;26.30;39.85
51243;BME280;37812;47.556;18.718;2022-09-09T11:18:46;99589.81;;;26.39;40.37
51243;BME280;37812;47.556;18.718;2022-09-09T11:21:22;99593.09;;;26.47;38.43
51243;BME280;37812;47.556;18.718;2022-09-09T11:23:57;99586.41;;;26.63;38.69
51243;BME280;37812;47.556;18.718;2022-09-09T11:26:42;99576.44;;;26.98;38.60
51243;BME280;37812;47.556;18.718;2022-09-09T11:32:05;99582.59;;;26.98;39.23
51243;BME280;37812;47.556;18.718;2022-09-09T11:40:08;99575.03;;;27.14;38.45
51243;BME280;37812;47.556;18.718;2022-09-09T11:42:40;99569.53;;;27.20;38.63
51243;BME280;37812;47.556;18.718;2022-09-09T11:45:26;99556.75;;;27.05;39.30
51243;BME280;37812;47.556;18.718;2022-09-09T11:47:56;99557.09;;;27.72;41.15
51243;BME280;37812;47.556;18.718;2022-09-09T11:52:49;99554.97;;;28.30;38.35
51243;BME280;37812;47.556;18.718;2022-09-09T11:58:06;99553.44;;;28.46;38.28
51243;BME280;37812;47.556;18.718;2022-09-09T12:03:33;99547.44;;;28.41;38.58
51243;BME280;37812;47.556;18.718;2022-09-09T12:06:52;99554.38;;;28.22;37.18
51243;BME280;37812;47.556;18.718;2022-09-09T12:11:49;99550.22;;;28.15;38.28
51243;BME280;37812;47.556;18.718;2022-09-09T12:19:41;99551.59;;;27.52;37.35
51243;BME280;37812;47.556;18.718;2022-09-09T12:24:51;99541.03;;;27.98;38.71
51243;BME280;37812;47.556;18.718;2022-09-09T12:27:49;99535.13;;;28.61;37.09
51243;BME280;37812;47.556;18.718;2022-09-09T12:30:23;99527.50;;;28.28;35.75
51243;BME280;37812;47.556;18.718;2022-09-09T12:33:06;99524.81;;;28.51;39.32
51243;BME280;37812;47.556;18.718;2022-09-09T12:35:34;99525.41;;;28.38;38.62
51243;BME280;37812;47.556;18.718;2022-09-09T12:38:04;99523.47;;;27.94;38.63
51243;BME280;37812;47.556;18.718;2022-09-09T12:40:34;99530.94;;;27.35;39.01
51243;BME280;37812;47.556;18.718;2022-09-09T12:43:18;99528.09;;;26.88;37.83
51243;BME280;37812;47.556;18.718;2022-09-09T12:45:45;99521.78;;;26.91;40.33
51243;BME280;37812;47.556;18.718;2022-09-09T12:48:12;99513.63;;;26.70;41.48
51243;BME280;37812;47.556;18.718;2022-09-09T12:50:59;99512.87;;;26.39;43.57
51243;BME280;37812;47.556;18.718;2022-09-09T12:53:35;99508.97;;;25.91;44.00
51243;BME280;37812;47.556;18.718;2022-09-09T12:56:04;99501.78;;;26.24;44.67
51243;BME280;37812;47.556;18.718;2022-09-09T12:58:33;99505.31;;;26.54;42.06
51243;BME280;37812;47.556;18.718;2022-09-09T13:01:03;99498.72;;;26.66;41.92
51243;BME280;37812;47.556;18.718;2022-09-09T13:03:32;99506.00;;;26.59;40.83
51243;BME280;37812;47.556;18.718;2022-09-09T13:06:11;99501.00;;;26.50;42.95
51243;BME280;37812;47.556;18.718;2022-09-09T13:08:38;99493.53;;;26.33;43.92
51243;BME280;37812;47.556;18.718;2022-09-09T13:11:08;99485.31;;;26.13;41.99
51243;BME280;37812;47.556;18.718;2022-09-09T13:13:37;99489.87;;;26.38;42.00
51243;BME280;37812;47.556;18.718;2022-09-09T13:16:06;99479.84;;;26.19;39.97
51243;BME280;37812;47.556;18.718;2022-09-09T13:18:36;99476.84;;;26.02;39.05
51243;BME280;37812;47.556;18.718;2022-09-09T13:21:03;99472.28;;;25.77;43.90
51243;BME280;37812;47.556;18.718;2022-09-09T13:23:32;99468.63;;;25.82;43.20
51243;BME280;37812;47.556;18.718;2022-09-09T13:26:02;99479.94;;;26.16;42.68
51243;BME280;37812;47.556;18.718;2022-09-09T13:28:30;99470.28;;;25.86;39.86
51243;BME280;37812;47.556;18.718;2022-09-09T13:31:05;99489.06;;;26.36;39.60
51243;BME280;37812;47.556;18.718;2022-09-09T13:33:39;99481.78;;;26.70;40.78
51243;BME280;37812;47.556;18.718;2022-09-09T13:36:11;99477.03;;;26.80;41.56
51243;BME280;37812;47.556;18.718;2022-09-09T13:41:19;99474.84;;;26.91;43.25
51243;BME280;37812;47.556;18.718;2022-09-09T13:43:47;99472.06;;;26.96;40.54
51243;BME280;37812;47.556;18.718;2022-09-09T13:48:58;99460.81;;;27.14;37.73
51243;BME280;37812;47.556;18.718;2022-09-09T13:51:38;99460.53;;;27.23;36.38
51243;BME280;37812;47.556;18.718;2022-09-09T13:54:05;99455.09;;;27.26;36.36
51243;BME280;37812;47.556;18.718;2022-09-09T13:56:33;99451.69;;;27.71;35.30
51243;BME280;37812;47.556;18.718;2022-09-09T13:59:00;99446.16;;;27.77;35.67
51243;BME280;37812;47.556;18.718;2022-09-09T14:01:27;99444.97;;;27.61;37.76
51243;BME280;37812;47.556;18.718;2022-09-09T14:03:53;99439.34;;;27.70;35.25
51243;BME280;37812;47.556;18.718;2022-09-09T14:06:20;99426.00;;;26.97;35.61
51243;BME280;37812;47.556;18.718;2022-09-09T14:08:48;99430.44;;;26.71;38.39
51243;BME280;37812;47.556;18.718;2022-09-09T14:11:16;99422.94;;;27.09;38.46
51243;BME280;37812;47.556;18.718;2022-09-09T14:13:42;99414.22;;;27.30;37.07
51243;BME280;37812;47.556;18.718;2022-09-09T14:16:08;99404.16;;;26.88;36.06
51243;BME280;37812;47.556;18.718;2022-09-09T14:18:35;99397.38;;;26.80;36.42
51243;BME280;37812;47.556;18.718;2022-09-09T14:21:02;99404.97;;;26.91;36.47
51243;BME280;37812;47.556;18.718;2022-09-09T14:23:28;99398.56;;;26.96;36.57
51243;BME280;37812;47.556;18.718;2022-09-09T14:25:55;99413.59;;;26.72;37.73
51243;BME280;37812;47.556;18.718;2022-09-09T14:28:21;99412.56;;;26.76;36.53
51243;BME280;37812;47.556;18.718;2022-09-09T14:30:47;99401.06;;;26.76;37.82
51243;BME280;37812;47.556;18.718;2022-09-09T14:33:14;99402.69;;;26.55;38.07
51243;BME280;37812;47.556;18.718;2022-09-09T14:35:42;99396.72;;;26.73;36.47
51243;BME280;37812;47.556;18.718;2022-09-09T14:38:08;99400.84;;;26.82;37.93
51243;BME280;37812;47.556;18.718;2022-09-09T14:40:35;99405.94;;;26.63;38.69
51243;BME280;37812;47.556;18.718;2022-09-09T14:43:03;99397.25;;;26.58;37.75
51243;BME280;37812;47.556;18.718;2022-09-09T14:45:28;99404.81;;;26.44;38.21
51243;BME280;37812;47.556;18.718;2022-09-09T14:47:54;99401.47;;;26.39;39.11
51243;BME280;37812;47.556;18.718;2022-09-09T14:50:22;99402.94;;;26.19;40.31
51243;BME280;37812;47.556;18.718;2022-09-09T14:52:48;99402.69;;;25.99;40.58
51243;BME280;37812;47.556;18.718;2022-09-09T14:55:14;99408.91;;;25.98;40.75
51243;BME280;37812;47.556;18.718;2022-09-09T14:57:41;99411.66;;;25.95;41.62
51243;BME280;37812;47.556;18.718;2022-09-09T15:00:09;99409.75;;;26.00;42.10